createdAt,value
2023-03-06T00:00:50.727Z,99654.75
2023-03-06T00:03:53.416Z,99658.22
2023-03-06T00:06:59.878Z,99652.09
2023-03-06T00:10:03.801Z,99658.22
2023-03-06T00:13:15.077Z,99657.00
2023-03-06T00:16:18.439Z,99643.34
2023-03-06T00:19:23.943Z,99649.00
2023-03-06T00:22:31.427Z,99644.84
2023-03-06T00:25:38.088Z,99648.91
2023-03-06T00:28:43.005Z,99649.47
2023-03-06T00:31:50.698Z,99643.50
2023-03-06T00:34:55.775Z,99639.09
2023-03-06T00:38:00.709Z,99636.28
2023-03-06T00:41:12.112Z,99637.88
2023-03-06T00:44:21.042Z,99631.78
2023-03-06T00:47:24.942Z,99632.53
2023-03-06T00:50:28.349Z,99634.94
2023-03-06T00:53:31.672Z,99636.84
2023-03-06T00:56:36.178Z,99629.53
2023-03-06T00:59:42.143Z,99621.53
2023-03-06T01:02:45.299Z,99618.97
2023-03-06T01:05:50.461Z,99614.25
2023-03-06T01:08:57.548Z,99615.72
2023-03-06T01:12:07.308Z,99611.56
2023-03-06T01:15:11.136Z,99616.66
2023-03-06T01:18:15.225Z,99608.06
2023-03-06T01:21:21.801Z,99600.31
2023-03-06T01:24:26.954Z,99606.34
2023-03-06T01:27:37.117Z,99604.75
2023-03-06T01:30:41.215Z,99602.06
2023-03-06T01:33:43.779Z,99609.75
2023-03-06T01:36:47.975Z,99595.84
2023-03-06T01:39:52.549Z,99595.94
2023-03-06T01:43:05.829Z,99592.09
2023-03-06T01:46:17.068Z,99592.59
2023-03-06T01:49:33.585Z,99588.09
2023-03-06T01:52:42.816Z,99589.19
2023-03-06T01:55:46.520Z,99589.47
2023-03-06T01:58:50.334Z,99584.38
2023-03-06T02:01:56.048Z,99592.19
2023-03-06T02:05:12.316Z,99589.87
2023-03-06T02:08:17.738Z,99578.62
2023-03-06T02:11:29.077Z,99588.75
2023-03-06T02:14:31.854Z,99581.53
2023-03-06T02:17:39.823Z,99587.44
2023-03-06T02:20:56.743Z,99586.44
2023-03-06T02:24:13.230Z,99593.09
2023-03-06T02:27:20.652Z,99585.44
2023-03-06T02:30:26.304Z,99580.38
2023-03-06T02:33:32.994Z,99575.63
2023-03-06T02:36:40.180Z,99578.44
2023-03-06T02:39:45.658Z,99573.28
2023-03-06T02:43:02.041Z,99574.37
2023-03-06T02:46:06.190Z,99577.09
2023-03-06T02:49:10.370Z,99580.22
2023-03-06T02:52:18.461Z,99579.13
2023-03-06T02:55:22.989Z,99581.72
2023-03-06T02:58:27.330Z,99574.87
2023-03-06T03:01:31.140Z,99586.78
2023-03-06T03:04:40.266Z,99580.03
2023-03-06T03:07:46.128Z,99573.47
2023-03-06T03:10:50.025Z,99571.06
2023-03-06T03:13:54.348Z,99572.22
2023-03-06T03:16:57.043Z,99569.22
2023-03-06T03:20:00.163Z,99567.28
2023-03-06T03:23:04.962Z,99569.53
2023-03-06T03:26:12.261Z,99570.09
2023-03-06T03:29:17.402Z,99565.63
2023-03-06T03:32:25.032Z,99563.28
2023-03-06T03:35:30.462Z,99565.13
2023-03-06T03:38:36.516Z,99562.19
2023-03-06T03:41:43.748Z,99560.47
2023-03-06T03:44:48.751Z,99561.38
2023-03-06T03:47:51.352Z,99562.28
2023-03-06T03:50:55.226Z,99564.34
2023-03-06T03:53:59.676Z,99560.34
2023-03-06T03:57:04.936Z,99552.63
2023-03-06T04:00:18.869Z,99559.72
2023-03-06T04:03:22.990Z,99567.28
2023-03-06T04:06:29.456Z,99560.53
2023-03-06T04:09:33.968Z,99565.34
2023-03-06T04:12:39.311Z,99556.12
2023-03-06T04:15:43.949Z,99561.28
2023-03-06T04:18:50.640Z,99553.88
2023-03-06T04:22:02.802Z,99559.97
2023-03-06T04:25:08.891Z,99559.37
2023-03-06T04:28:13.008Z,99568.88
2023-03-06T04:31:17.226Z,99561.03
2023-03-06T04:34:23.206Z,99560.72
2023-03-06T04:37:26.507Z,99559.13
2023-03-06T04:40:32.347Z,99550.47
2023-03-06T04:43:38.433Z,99562.28
2023-03-06T04:46:46.931Z,99558.03
2023-03-06T04:49:50.849Z,99555.44
2023-03-06T04:52:56.501Z,99550.13
2023-03-06T04:56:01.827Z,99546.81
2023-03-06T04:59:07.974Z,99545.06
2023-03-06T05:02:15.563Z,99550.28
2023-03-06T05:05:24.023Z,99549.56
2023-03-06T05:08:27.633Z,99548.72
2023-03-06T05:11:31.234Z,99549.28
2023-03-06T05:14:34.740Z,99550.13
2023-03-06T05:17:42.959Z,99556.19
2023-03-06T05:20:47.070Z,99549.56
2023-03-06T05:23:50.757Z,99547.88
2023-03-06T05:26:53.677Z,99549.47
2023-03-06T05:29:57.883Z,99550.22
2023-03-06T05:33:02.851Z,99552.63
2023-03-06T05:36:07.674Z,99551.63
2023-03-06T05:39:12.204Z,99550.81
2023-03-06T05:42:16.840Z,99548.47
2023-03-06T05:45:20.126Z,99544.75
2023-03-06T05:48:25.268Z,99548.25
2023-03-06T05:51:29.903Z,99546.66
2023-03-06T05:54:37.273Z,99552.31
2023-03-06T05:57:40.681Z,99554.16
2023-03-06T06:00:44.389Z,99547.31
2023-03-06T06:03:48.082Z,99551.31
2023-03-06T06:07:00.313Z,99553.56
2023-03-06T06:10:06.486Z,99556.31
2023-03-06T06:13:12.940Z,99562.59
2023-03-06T06:16:23.110Z,99557.28
2023-03-06T06:19:29.401Z,99566.66
2023-03-06T06:22:34.107Z,99550.06
2023-03-06T06:25:41.395Z,99564.31
2023-03-06T06:28:44.907Z,99571.31
2023-03-06T06:31:50.035Z,99571.19
2023-03-06T06:34:54.689Z,99573.34
2023-03-06T06:38:04.733Z,99574.97
2023-03-06T06:44:35.180Z,99583.03
2023-03-06T06:47:44.098Z,99576.81
2023-03-06T06:50:47.905Z,99574.53
2023-03-06T06:53:59.401Z,99569.13
2023-03-06T06:57:04.146Z,99566.91
2023-03-06T07:00:09.289Z,99569.94
2023-03-06T07:03:21.906Z,99567.75
2023-03-06T07:06:25.742Z,99570.12
2023-03-06T07:09:32.912Z,99568.22
2023-03-06T07:12:39.782Z,99576.53
2023-03-06T07:15:43.748Z,99583.34
2023-03-06T07:18:48.637Z,99585.62
2023-03-06T07:21:56.029Z,99589.53
2023-03-06T07:25:00.748Z,99590.72
2023-03-06T07:28:11.629Z,99591.38
2023-03-06T07:31:20.308Z,99594.22
2023-03-06T07:34:28.523Z,99598.94
2023-03-06T07:37:32.599Z,99600.13
2023-03-06T07:40:36.914Z,99591.78
2023-03-06T07:43:51.008Z,99594.59
2023-03-06T07:46:55.153Z,99594.00
2023-03-06T07:50:03.194Z,99597.28
2023-03-06T07:53:06.584Z,99597.28
2023-03-06T07:56:12.661Z,99599.69
2023-03-06T07:59:16.519Z,99603.22
2023-03-06T08:02:23.028Z,99605.69
2023-03-06T08:05:25.733Z,99604.28
2023-03-06T08:08:28.950Z,99605.88
2023-03-06T08:11:34.500Z,99612.09
2023-03-06T08:14:37.217Z,99616.06
2023-03-06T08:17:40.173Z,99614.28
2023-03-06T08:20:43.549Z,99613.66
2023-03-06T08:23:48.044Z,99607.25
2023-03-06T08:26:51.783Z,99607.56
2023-03-06T08:29:55.081Z,99604.16
2023-03-06T08:32:57.778Z,99608.50
2023-03-06T08:36:03.755Z,99603.13
2023-03-06T08:39:06.436Z,99598.88
2023-03-06T08:42:11.069Z,99604.59
2023-03-06T08:45:14.313Z,99602.16
2023-03-06T08:48:17.320Z,99602.75
2023-03-06T08:51:25.102Z,99605.88
2023-03-06T08:54:28.544Z,99604.78
2023-03-06T08:57:31.889Z,99604.37
2023-03-06T09:00:35.996Z,99598.88
2023-03-06T09:03:45.438Z,99598.97
2023-03-06T09:06:48.369Z,99599.25
2023-03-06T09:09:51.370Z,99582.66
2023-03-06T09:12:57.440Z,99584.28
2023-03-06T09:16:02.173Z,99584.19
2023-03-06T09:19:06.795Z,99578.16
2023-03-06T09:22:13.069Z,99576.31
2023-03-06T09:25:20.462Z,99582.63
2023-03-06T09:28:23.374Z,99578.78
2023-03-06T09:31:28.296Z,99566.22
2023-03-06T09:34:31.089Z,99566.50
2023-03-06T09:37:34.184Z,99563.84
2023-03-06T09:40:49.142Z,99559.00
2023-03-06T09:43:54.724Z,99565.75
2023-03-06T09:47:15.909Z,99559.53
2023-03-06T09:50:32.581Z,99568.75
2023-03-06T09:54:04.386Z,99563.03
2023-03-06T09:57:14.428Z,99563.66
2023-03-06T10:00:20.818Z,99559.44
2023-03-06T10:03:42.347Z,99559.03
2023-03-06T10:06:52.613Z,99563.06
2023-03-06T10:10:00.976Z,99558.22
2023-03-06T10:13:07.505Z,99552.56
2023-03-06T10:16:13.259Z,99552.34
2023-03-06T10:19:18.803Z,99552.28
2023-03-06T10:22:24.456Z,99554.19
2023-03-06T10:25:31.996Z,99551.47
2023-03-06T10:28:42.324Z,99545.69
2023-03-06T10:31:49.679Z,99537.91
2023-03-06T10:34:55.125Z,99543.31
2023-03-06T10:38:24.475Z,99541.94
2023-03-06T10:41:32.915Z,99535.97
2023-03-06T10:44:35.368Z,99526.59
2023-03-06T10:47:39.344Z,99523.91
2023-03-06T10:50:43.466Z,99511.66
2023-03-06T10:53:52.712Z,99502.22
2023-03-06T10:56:58.005Z,99502.22
2023-03-06T11:00:06.921Z,99501.81
2023-03-06T11:03:24.053Z,99494.44
2023-03-06T11:06:37.394Z,99484.38
2023-03-06T11:09:40.477Z,99483.81
2023-03-06T11:12:45.604Z,99476.22
2023-03-06T11:16:05.653Z,99464.28
2023-03-06T11:19:20.150Z,99462.84
2023-03-06T11:22:24.884Z,99456.59
2023-03-06T11:25:31.460Z,99443.75
2023-03-06T11:28:55.383Z,99438.56
2023-03-06T11:31:59.044Z,99430.25
2023-03-06T11:35:16.482Z,99433.34
2023-03-06T11:38:46.104Z,99426.53
2023-03-06T11:42:10.926Z,99406.50
2023-03-06T11:45:26.388Z,99403.06
2023-03-06T11:48:35.339Z,99384.69
2023-03-06T11:51:43.035Z,99381.88
2023-03-06T11:54:48.766Z,99380.69
2023-03-06T11:58:16.627Z,99375.16
2023-03-06T12:01:42.521Z,99369.63
2023-03-06T12:04:48.818Z,99355.00
2023-03-06T12:08:06.989Z,99355.81
2023-03-06T12:11:22.784Z,99346.25
2023-03-06T12:14:40.925Z,99341.69
2023-03-06T12:17:47.607Z,99340.13
2023-03-06T12:20:56.635Z,99345.00
2023-03-06T12:24:01.386Z,99332.56
2023-03-06T12:27:10.100Z,99337.09
2023-03-06T12:30:25.808Z,99341.78
2023-03-06T12:33:34.073Z,99336.47
2023-03-06T12:36:48.771Z,99334.41
2023-03-06T12:39:51.466Z,99335.28
2023-03-06T12:42:56.702Z,99336.88
2023-03-06T12:46:08.009Z,99326.47
2023-03-06T12:49:31.164Z,99328.25
2023-03-06T12:52:36.107Z,99317.69
2023-03-06T12:55:44.821Z,99323.53
2023-03-06T12:58:54.797Z,99321.88
2023-03-06T13:01:58.163Z,99315.84
2023-03-06T13:05:20.511Z,99311.75
2023-03-06T13:08:46.156Z,99308.50
2023-03-06T13:11:51.390Z,99313.53
2023-03-06T13:14:57.231Z,99301.72
2023-03-06T13:18:00.737Z,99302.13
2023-03-06T13:21:09.460Z,99302.91
2023-03-06T13:24:22.806Z,99307.94
2023-03-06T13:27:46.697Z,99289.47
2023-03-06T13:30:52.998Z,99284.81
2023-03-06T13:33:59.421Z,99289.72
2023-03-06T13:37:20.559Z,99283.69
2023-03-06T13:40:37.797Z,99274.72
2023-03-06T13:43:45.359Z,99259.88
2023-03-06T13:47:01.904Z,99271.00
2023-03-06T13:50:23.300Z,99263.19
2023-03-06T13:53:38.971Z,99263.88
2023-03-06T13:57:07.073Z,99260.91
2023-03-06T14:00:31.466Z,99249.78
2023-03-06T14:03:54.809Z,99244.97
2023-03-06T14:07:24.150Z,99240.97
2023-03-06T14:10:28.012Z,99242.16
2023-03-06T14:13:47.494Z,99247.81
2023-03-06T14:16:51.814Z,99238.16
2023-03-06T14:19:56.157Z,99238.13
2023-03-06T14:23:30.198Z,99238.94
2023-03-06T14:26:34.315Z,99236.44
2023-03-06T14:29:37.413Z,99235.41
2023-03-06T14:32:42.465Z,99246.09
2023-03-06T14:35:53.241Z,99239.03
2023-03-06T14:39:03.797Z,99236.72
2023-03-06T14:42:09.672Z,99233.22
2023-03-06T14:45:24.323Z,99225.66
2023-03-06T14:48:44.076Z,99229.50
2023-03-06T14:51:48.495Z,99233.53
2023-03-06T14:54:51.599Z,99228.69
2023-03-06T14:58:00.428Z,99229.06
2023-03-06T15:01:05.403Z,99220.69
2023-03-06T15:04:18.832Z,99218.03
2023-03-06T15:07:28.145Z,99213.97
2023-03-06T15:10:32.769Z,99209.53
2023-03-06T15:13:37.238Z,99209.09
2023-03-06T15:16:40.077Z,99216.69
2023-03-06T15:19:43.421Z,99212.41
2023-03-06T15:22:52.116Z,99213.06
2023-03-06T15:26:00.434Z,99205.28
2023-03-06T15:29:16.864Z,99203.94
2023-03-06T15:32:26.244Z,99195.34
2023-03-06T15:35:30.345Z,99198.16
2023-03-06T15:38:35.932Z,99207.28
2023-03-06T15:41:40.189Z,99199.38
2023-03-06T15:44:43.292Z,99205.00
2023-03-06T15:47:48.643Z,99204.25
2023-03-06T15:50:53.017Z,99198.56
2023-03-06T15:54:09.736Z,99199.06
2023-03-06T15:57:19.963Z,99202.38
2023-03-06T16:00:33.484Z,99199.50
2023-03-06T16:03:37.088Z,99202.06
2023-03-06T16:06:40.792Z,99209.63
2023-03-06T16:09:46.411Z,99212.75
2023-03-06T16:12:52.106Z,99216.34
2023-03-06T16:15:58.934Z,99216.22
2023-03-06T16:19:07.563Z,99213.66
2023-03-06T16:22:15.467Z,99212.81
2023-03-06T16:25:21.134Z,99214.16
2023-03-06T16:28:24.060Z,99215.19
2023-03-06T16:31:27.302Z,99210.22
2023-03-06T16:34:29.992Z,99209.37
2023-03-06T16:37:32.854Z,99208.84
2023-03-06T16:40:43.086Z,99223.81
2023-03-06T16:43:47.449Z,99222.44
2023-03-06T16:46:52.447Z,99228.44
2023-03-06T16:49:58.436Z,99226.69
2023-03-06T16:53:03.991Z,99227.09
2023-03-06T16:56:08.286Z,99232.44
2023-03-06T16:59:15.214Z,99228.44
2023-03-06T17:02:18.640Z,99234.34
2023-03-06T17:05:22.899Z,99224.91
2023-03-06T17:08:26.705Z,99224.84
2023-03-06T17:11:30.414Z,99220.28
2023-03-06T17:14:34.269Z,99223.59
2023-03-06T17:17:37.278Z,99232.19
2023-03-06T17:20:43.947Z,99235.59
2023-03-06T17:23:47.048Z,99235.06
2023-03-06T17:26:50.234Z,99233.69
2023-03-06T17:29:52.835Z,99229.66
2023-03-06T17:32:59.075Z,99222.81
2023-03-06T17:36:02.084Z,99233.59
2023-03-06T17:39:05.634Z,99225.81
2023-03-06T17:42:09.379Z,99227.03
2023-03-06T17:45:12.889Z,99232.88
2023-03-06T17:48:15.896Z,99225.41
2023-03-06T17:51:18.766Z,99212.50
2023-03-06T17:54:24.316Z,99228.53
2023-03-06T17:57:27.492Z,99227.25
2023-03-06T18:00:31.262Z,99224.78
2023-03-06T18:03:35.911Z,99223.56
2023-03-06T18:06:40.072Z,99226.22
2023-03-06T18:09:43.951Z,99228.00
2023-03-06T18:12:51.103Z,99233.69
2023-03-06T18:15:55.792Z,99233.91
2023-03-06T18:18:59.064Z,99230.50
2023-03-06T18:22:02.159Z,99226.69
2023-03-06T18:25:04.978Z,99230.56
2023-03-06T18:28:07.532Z,99226.63
2023-03-06T18:31:20.270Z,99221.47
2023-03-06T18:34:24.167Z,99221.47
2023-03-06T18:37:26.522Z,99213.38
2023-03-06T18:40:30.234Z,99214.13
2023-03-06T18:43:32.525Z,99216.44
2023-03-06T18:46:39.336Z,99220.91
2023-03-06T18:49:44.348Z,99220.78
2023-03-06T18:52:48.381Z,99227.78
2023-03-06T18:55:52.811Z,99231.22
2023-03-06T18:59:00.690Z,99231.56
2023-03-06T19:02:07.490Z,99233.16
2023-03-06T19:05:11.409Z,99232.53
2023-03-06T19:08:15.733Z,99221.94
2023-03-06T19:11:19.138Z,99221.38
2023-03-06T19:14:22.442Z,99221.94
2023-03-06T19:17:25.627Z,99238.25
2023-03-06T19:20:29.134Z,99233.59
2023-03-06T19:23:32.328Z,99210.34
2023-03-06T19:26:36.636Z,99221.16
2023-03-06T19:29:39.220Z,99230.63
2023-03-06T19:32:45.409Z,99226.19
2023-03-06T19:35:49.215Z,99212.94
2023-03-06T19:38:55.084Z,99208.34
2023-03-06T19:41:58.060Z,99218.84
2023-03-06T19:45:00.534Z,99211.84
2023-03-06T19:48:05.844Z,99214.13
2023-03-06T19:51:08.993Z,99218.25
2023-03-06T19:54:13.806Z,99226.31
2023-03-06T19:57:17.936Z,99230.19
2023-03-06T20:00:21.324Z,99222.53
2023-03-06T20:03:25.054Z,99205.94
2023-03-06T20:06:32.740Z,99202.28
2023-03-06T20:09:36.650Z,99202.19
2023-03-06T20:12:41.087Z,99198.50
2023-03-06T20:15:44.229Z,99207.91
2023-03-06T20:18:48.107Z,99209.28
2023-03-06T20:21:51.883Z,99210.38
2023-03-06T20:24:54.669Z,99206.97
2023-03-06T20:27:57.889Z,99204.31
2023-03-06T20:31:08.278Z,99209.09
2023-03-06T20:34:13.064Z,99204.22
2023-03-06T20:37:17.285Z,99209.56
2023-03-06T20:40:21.349Z,99211.28
2023-03-06T20:43:24.630Z,99213.72
2023-03-06T20:46:31.711Z,99213.88
2023-03-06T20:49:36.647Z,99220.34
2023-03-06T20:52:39.845Z,99224.56
2023-03-06T20:55:45.904Z,99229.81
2023-03-06T20:58:50.209Z,99219.41
2023-03-06T21:01:53.799Z,99223.53
2023-03-06T21:04:56.232Z,99214.69
2023-03-06T21:07:58.571Z,99228.69
2023-03-06T21:11:03.303Z,99221.22
2023-03-06T21:14:08.250Z,99222.41
2023-03-06T21:17:13.497Z,99228.44
2023-03-06T21:20:18.717Z,99228.66
2023-03-06T21:23:23.260Z,99234.31
2023-03-06T21:26:28.712Z,99232.06
2023-03-06T21:29:33.948Z,99221.38
2023-03-06T21:32:38.326Z,99229.06
2023-03-06T21:35:43.825Z,99228.50
2023-03-06T21:38:48.870Z,99225.72
2023-03-06T21:41:52.786Z,99214.84
2023-03-06T21:44:55.781Z,99224.63
2023-03-06T21:47:59.477Z,99223.47
2023-03-06T21:51:09.836Z,99225.22
2023-03-06T21:54:14.357Z,99217.13
2023-03-06T21:57:17.774Z,99214.88
2023-03-06T22:00:29.362Z,99221.00
2023-03-06T22:03:33.488Z,99212.44
2023-03-06T22:06:40.882Z,99218.47
2023-03-06T22:09:43.055Z,99222.47
2023-03-06T22:12:47.471Z,99219.97
2023-03-06T22:15:52.520Z,99219.97
2023-03-06T22:18:58.596Z,99218.31
2023-03-06T22:22:01.889Z,99215.37
2023-03-06T22:25:07.349Z,99211.66
2023-03-06T22:28:12.783Z,99221.44
2023-03-06T22:31:22.622Z,99216.25
2023-03-06T22:34:28.283Z,99215.09
2023-03-06T22:37:32.900Z,99205.12
2023-03-06T22:40:36.731Z,99208.09
2023-03-06T22:43:40.850Z,99201.28
2023-03-06T22:46:43.822Z,99209.37
2023-03-06T22:49:47.011Z,99216.19
2023-03-06T22:52:53.502Z,99214.00
2023-03-06T22:56:01.122Z,99216.19
2023-03-06T22:59:06.456Z,99216.25
2023-03-06T23:02:09.545Z,99218.84
2023-03-06T23:05:12.753Z,99225.22
2023-03-06T23:08:18.500Z,99223.47
2023-03-06T23:11:23.209Z,99224.94
2023-03-06T23:14:26.785Z,99221.69
2023-03-06T23:17:30.318Z,99217.16
2023-03-06T23:20:36.714Z,99222.44
2023-03-06T23:23:41.376Z,99217.19
2023-03-06T23:26:44.237Z,99213.81
2023-03-06T23:29:50.504Z,99217.41
2023-03-06T23:32:53.392Z,99215.28
2023-03-06T23:35:56.906Z,99208.66
2023-03-06T23:39:01.316Z,99217.13
2023-03-06T23:42:05.542Z,99215.63
2023-03-06T23:45:08.741Z,99216.56
2023-03-06T23:48:12.119Z,99219.69
2023-03-06T23:51:16.875Z,99211.50
2023-03-06T23:54:20.875Z,99212.69
2023-03-06T23:57:28.068Z,99217.03
